Aérodrome :
LOGIN :

S'inscrire | Disclaimer

   EN    FR    IT 

 










Légende :    VFR   VFR Marginal   IFR   IFR Intensif   IFR Très Intensif
Visi : 
Plafond : 
>= 8 km
>= 3000ft
5 à 8 km
1000 à 3000 ft
1500m à 5 km
500 à 1000 ft
800 à 1500m
200 à 500 ft
< 800m
< 200 ft
Symboles :   Orages  Brouillard  Fortes neiges  Fortes précipitations  Vent > 20 kt
SIGMETs :   Divers  Orages  Givrage  Turbulence  Onde Orograph.  Cendres Volcan.






- Altitude de l'aérodrome : 423 ft
- Code IATA : PIS


LFBI - Poitiers

DERNIER METAR :
  • 071500Z AUTO 19007KT 9999 SCT044 12/10 Q1020 TEMPO 3000 BR BKN003

METARs EXPIRÉS :
  • 071430Z AUTO 19008KT 9999 FEW036 13/10 Q1020 TEMPO 3000 BR BKN003
  • 071400Z AUTO 22009KT 9999 FEW014 BKN037 BKN046 12/10 Q1020 TEMPO 3000 BR BKN003
  • 071330Z AUTO 24008KT 9999 SCT012 BKN046 12/10 Q1020 TEMPO 3000 BR BKN003
  • 071300Z AUTO 21008KT 9999 BKN007 OVC013 12/10 Q1020 TEMPO 3000 BR BKN003
  • 071230Z AUTO 21009KT 9999 OVC006 11/10 Q1020 TEMPO 3000 BR BKN003

TAF AMD TAF LFBI
Valide du 07 à 13h jusqu'au 08 à 12h UTC


071343Z 0713/0812 19010KT 8000 BKN009
TEMPO 0713/0804 3000 BR BKN003
BECMG 0804/0806 24015KT BKN010
BECMG 0806/0808 23015G25KT 4000 -RA
TEMPO 0808/0812 2000 RADZ OVC006



MET'MAP, la Météo Aéronautique d'un coup d'oeil ! - Copyright ORBIFLY Décembre 2007 - Disclaimer

ORBIFLY MET'MAP TEAM :

Programmation & Développement : Alexandra Zaïnal
Sur une idée originale de : Baudouin d'Aumeries
Assistance à la programmation : Marc-Olivier Méhu
Soutien technique & logistique : Manuel Goepfert

Contact : metmap@orbifly.com




SOURCES & CREDITS :

   NOAA